sensor_id;sensor_type;location;lat;lon;timestamp;pressure;altitude;pressure_sealevel;temperature;humidity
71996;BME280;59862;47.732;7.346;2023-02-20T00:00:52;99374.53;;;6.55;78.32
71996;BME280;59862;47.732;7.346;2023-02-20T00:03:20;99372.61;;;6.51;78.62
71996;BME280;59862;47.732;7.346;2023-02-20T00:05:47;99373.95;;;6.51;78.79
71996;BME280;59862;47.732;7.346;2023-02-20T00:08:15;99374.20;;;6.43;79.13
71996;BME280;59862;47.732;7.346;2023-02-20T00:10:42;99373.33;;;6.48;79.16
71996;BME280;59862;47.732;7.346;2023-02-20T00:13:10;99382.80;;;6.52;79.34
71996;BME280;59862;47.732;7.346;2023-02-20T00:15:38;99384.13;;;6.52;79.35
71996;BME280;59862;47.732;7.346;2023-02-20T00:18:05;99383.86;;;6.55;79.34
71996;BME280;59862;47.732;7.346;2023-02-20T00:20:33;99375.27;;;6.46;79.86
71996;BME280;59862;47.732;7.346;2023-02-20T00:23:01;99372.74;;;6.44;80.04
71996;BME280;59862;47.732;7.346;2023-02-20T00:25:29;99379.04;;;6.49;79.90
71996;BME280;59862;47.732;7.346;2023-02-20T00:27:56;99377.22;;;6.44;79.94
71996;BME280;59862;47.732;7.346;2023-02-20T00:30:24;99378.20;;;6.43;79.89
71996;BME280;59862;47.732;7.346;2023-02-20T00:32:53;99371.53;;;6.37;80.02
71996;BME280;59862;47.732;7.346;2023-02-20T00:35:22;99365.73;;;6.27;80.31
71996;BME280;59862;47.732;7.346;2023-02-20T00:37:51;99364.17;;;6.19;80.62
71996;BME280;59862;47.732;7.346;2023-02-20T00:40:20;99371.34;;;6.13;80.69
71996;BME280;59862;47.732;7.346;2023-02-20T00:42:48;99371.22;;;6.08;80.91
71996;BME280;59862;47.732;7.346;2023-02-20T00:45:17;99372.66;;;6.07;80.96
71996;BME280;59862;47.732;7.346;2023-02-20T00:47:45;99369.63;;;6.00;81.26
71996;BME280;59862;47.732;7.346;2023-02-20T00:50:14;99368.30;;;6.00;81.29
71996;BME280;59862;47.732;7.346;2023-02-20T00:52:42;99370.61;;;5.99;81.16
71996;BME280;59862;47.732;7.346;2023-02-20T00:55:10;99372.90;;;5.98;81.10
71996;BME280;59862;47.732;7.346;2023-02-20T00:57:38;99380.66;;;5.90;81.14
71996;BME280;59862;47.732;7.346;2023-02-20T01:00:07;99379.20;;;5.86;81.35
71996;BME280;59862;47.732;7.346;2023-02-20T01:02:35;99381.09;;;5.73;81.67
71996;BME280;59862;47.732;7.346;2023-02-20T01:05:03;99380.34;;;5.60;82.49
71996;BME280;59862;47.732;7.346;2023-02-20T01:07:31;99380.09;;;5.58;82.95
71996;BME280;59862;47.732;7.346;2023-02-20T01:09:58;99386.76;;;5.52;83.07
71996;BME280;59862;47.732;7.346;2023-02-20T01:12:25;99382.98;;;5.49;83.43
71996;BME280;59862;47.732;7.346;2023-02-20T01:14:53;99386.13;;;5.49;83.69
71996;BME280;59862;47.732;7.346;2023-02-20T01:17:20;99388.31;;;5.49;83.62
71996;BME280;59862;47.732;7.346;2023-02-20T01:19:48;99367.97;;;5.48;83.42
71996;BME280;59862;47.732;7.346;2023-02-20T01:22:15;99372.12;;;5.52;83.29
71996;BME280;59862;47.732;7.346;2023-02-20T01:24:42;99375.00;;;5.55;82.97
71996;BME280;59862;47.732;7.346;2023-02-20T01:27:10;99368.85;;;5.54;82.84
71996;BME280;59862;47.732;7.346;2023-02-20T01:29:37;99363.38;;;5.50;82.84
71996;BME280;59862;47.732;7.346;2023-02-20T01:32:05;99358.90;;;5.51;83.04
71996;BME280;59862;47.732;7.346;2023-02-20T01:34:32;99353.48;;;5.52;83.10
71996;BME280;59862;47.732;7.346;2023-02-20T01:36:59;99348.26;;;5.45;83.32
71996;BME280;59862;47.732;7.346;2023-02-20T01:39:28;99350.66;;;5.48;83.60
71996;BME280;59862;47.732;7.346;2023-02-20T01:42:03;99344.27;;;5.45;83.63
71996;BME280;59862;47.732;7.346;2023-02-20T01:44:29;99343.63;;;5.42;83.81
71996;BME280;59862;47.732;7.346;2023-02-20T01:46:58;99345.92;;;5.35;83.97
71996;BME280;59862;47.732;7.346;2023-02-20T01:49:42;99333.47;;;5.35;84.08
71996;BME280;59862;47.732;7.346;2023-02-20T01:52:09;99336.98;;;5.30;84.20
71996;BME280;59862;47.732;7.346;2023-02-20T01:54:38;99326.81;;;5.30;84.09
71996;BME280;59862;47.732;7.346;2023-02-20T01:57:08;99324.25;;;5.28;83.90
71996;BME280;59862;47.732;7.346;2023-02-20T01:59:39;99327.77;;;5.23;83.91
71996;BME280;59862;47.732;7.346;2023-02-20T02:02:08;99335.50;;;5.21;83.95
71996;BME280;59862;47.732;7.346;2023-02-20T02:04:38;99335.38;;;5.17;84.07
71996;BME280;59862;47.732;7.346;2023-02-20T02:07:06;99337.44;;;5.19;83.97
71996;BME280;59862;47.732;7.346;2023-02-20T02:09:40;99344.81;;;5.21;83.80
71996;BME280;59862;47.732;7.346;2023-02-20T02:12:08;99344.69;;;5.17;83.66
71996;BME280;59862;47.732;7.346;2023-02-20T02:14:35;99346.62;;;5.15;83.64
71996;BME280;59862;47.732;7.346;2023-02-20T02:19:48;99336.07;;;5.13;83.45
71996;BME280;59862;47.732;7.346;2023-02-20T02:22:22;99337.40;;;5.13;83.31
71996;BME280;59862;47.732;7.346;2023-02-20T02:25:24;99335.38;;;5.17;83.01
71996;BME280;59862;47.732;7.346;2023-02-20T02:27:51;99329.58;;;5.17;82.73
71996;BME280;59862;47.732;7.346;2023-02-20T02:41:45;99343.70;;;5.12;82.55
71996;BME280;59862;47.732;7.346;2023-02-20T02:44:24;99344.43;;;5.09;82.79
71996;BME280;59862;47.732;7.346;2023-02-20T02:47:05;99344.17;;;5.06;82.96
71996;BME280;59862;47.732;7.346;2023-02-20T02:49:44;99339.67;;;5.07;83.02
71996;BME280;59862;47.732;7.346;2023-02-20T02:52:11;99344.27;;;4.99;83.58
71996;BME280;59862;47.732;7.346;2023-02-20T02:54:40;99340.27;;;4.99;84.16
71996;BME280;59862;47.732;7.346;2023-02-20T02:57:23;99336.06;;;5.02;84.16
71996;BME280;59862;47.732;7.346;2023-02-20T03:00:04;99339.20;;;5.02;84.20
71996;BME280;59862;47.732;7.346;2023-02-20T03:02:30;99338.47;;;5.00;84.11
71996;BME280;59862;47.732;7.346;2023-02-20T03:04:58;99329.89;;;5.02;84.04
71996;BME280;59862;47.732;7.346;2023-02-20T03:07:28;99322.13;;;4.99;84.06
71996;BME280;59862;47.732;7.346;2023-02-20T03:10:00;99319.47;;;4.99;84.09
71996;BME280;59862;47.732;7.346;2023-02-20T03:12:28;99319.73;;;5.01;84.04
71996;BME280;59862;47.732;7.346;2023-02-20T03:14:59;99322.13;;;4.99;84.09
71996;BME280;59862;47.732;7.346;2023-02-20T03:17:54;99324.19;;;5.01;84.08
71996;BME280;59862;47.732;7.346;2023-02-20T03:20:19;99326.84;;;5.01;84.05
71996;BME280;59862;47.732;7.346;2023-02-20T03:22:58;99318.52;;;5.00;84.13
71996;BME280;59862;47.732;7.346;2023-02-20T03:25:32;99321.31;;;5.04;84.08
71996;BME280;59862;47.732;7.346;2023-02-20T03:27:59;99314.87;;;5.01;84.05
71996;BME280;59862;47.732;7.346;2023-02-20T03:30:38;99311.88;;;5.00;84.04
71996;BME280;59862;47.732;7.346;2023-02-20T03:33:11;99313.42;;;4.97;84.12
71996;BME280;59862;47.732;7.346;2023-02-20T03:35:58;99306.05;;;4.95;84.27
71996;BME280;59862;47.732;7.346;2023-02-20T03:38:46;99293.56;;;4.90;84.57
71996;BME280;59862;47.732;7.346;2023-02-20T03:41:32;99301.45;;;4.91;84.86
71996;BME280;59862;47.732;7.346;2023-02-20T03:44:20;99300.94;;;4.92;84.91
71996;BME280;59862;47.732;7.346;2023-02-20T03:46:50;99301.55;;;4.90;84.83
71996;BME280;59862;47.732;7.346;2023-02-20T03:49:21;99296.13;;;4.91;84.93
71996;BME280;59862;47.732;7.346;2023-02-20T03:51:49;99288.38;;;4.94;84.93
71996;BME280;59862;47.732;7.346;2023-02-20T03:54:17;99294.33;;;4.97;84.89
71996;BME280;59862;47.732;7.346;2023-02-20T03:56:48;99291.20;;;4.98;84.79
71996;BME280;59862;47.732;7.346;2023-02-20T03:59:20;99290.09;;;5.00;84.89
71996;BME280;59862;47.732;7.346;2023-02-20T04:01:51;99292.40;;;4.99;85.19
71996;BME280;59862;47.732;7.346;2023-02-20T04:04:22;99280.43;;;4.99;85.27
71996;BME280;59862;47.732;7.346;2023-02-20T04:06:50;99272.32;;;5.01;85.29
71996;BME280;59862;47.732;7.346;2023-02-20T04:09:26;99271.38;;;5.02;85.43
71996;BME280;59862;47.732;7.346;2023-02-20T04:11:52;99274.98;;;5.01;85.63
71996;BME280;59862;47.732;7.346;2023-02-20T04:14:22;99274.38;;;5.03;85.69
71996;BME280;59862;47.732;7.346;2023-02-20T04:16:54;99261.81;;;5.05;85.59
71996;BME280;59862;47.732;7.346;2023-02-20T04:19:22;99262.91;;;5.08;85.43
71996;BME280;59862;47.732;7.346;2023-02-20T04:21:53;99261.11;;;5.08;85.42
71996;BME280;59862;47.732;7.346;2023-02-20T04:24:24;99259.75;;;5.03;85.50
71996;BME280;59862;47.732;7.346;2023-02-20T04:26:51;99256.27;;;5.02;85.50
71996;BME280;59862;47.732;7.346;2023-02-20T04:29:19;99258.30;;;4.99;85.62
71996;BME280;59862;47.732;7.346;2023-02-20T04:31:47;99255.16;;;5.05;85.64
71996;BME280;59862;47.732;7.346;2023-02-20T04:34:14;99261.08;;;5.03;85.41
71996;BME280;59862;47.732;7.346;2023-02-20T04:36:42;99264.25;;;5.02;85.57
71996;BME280;59862;47.732;7.346;2023-02-20T04:39:09;99263.05;;;5.06;85.57
71996;BME280;59862;47.732;7.346;2023-02-20T04:41:36;99265.45;;;5.04;85.38
71996;BME280;59862;47.732;7.346;2023-02-20T04:44:04;99261.94;;;5.03;85.12
71996;BME280;59862;47.732;7.346;2023-02-20T04:46:49;99267.61;;;4.99;85.14
71996;BME280;59862;47.732;7.346;2023-02-20T04:49:16;99255.89;;;4.96;85.33
71996;BME280;59862;47.732;7.346;2023-02-20T04:51:44;99264.09;;;4.93;85.75
71996;BME280;59862;47.732;7.346;2023-02-20T04:54:11;99274.25;;;4.93;85.73
71996;BME280;59862;47.732;7.346;2023-02-20T04:56:39;99274.73;;;4.93;85.79
71996;BME280;59862;47.732;7.346;2023-02-20T04:59:06;99272.80;;;4.89;85.88
71996;BME280;59862;47.732;7.346;2023-02-20T05:01:34;99276.79;;;4.95;85.97
71996;BME280;59862;47.732;7.346;2023-02-20T05:04:01;99280.83;;;4.77;85.37
71996;BME280;59862;47.732;7.346;2023-02-20T05:06:28;99284.17;;;4.62;85.65
71996;BME280;59862;47.732;7.346;2023-02-20T05:08:56;99279.97;;;4.65;85.47
71996;BME280;59862;47.732;7.346;2023-02-20T05:11:24;99278.04;;;4.67;85.04
71996;BME280;59862;47.732;7.346;2023-02-20T05:13:52;99276.45;;;4.65;84.74
71996;BME280;59862;47.732;7.346;2023-02-20T05:16:19;99277.14;;;4.55;84.50
71996;BME280;59862;47.732;7.346;2023-02-20T05:18:46;99278.35;;;4.33;84.58
71996;BME280;59862;47.732;7.346;2023-02-20T05:21:14;99278.81;;;4.27;84.83
71996;BME280;59862;47.732;7.346;2023-02-20T05:24:00;99273.77;;;4.12;85.48
71996;BME280;59862;47.732;7.346;2023-02-20T05:26:27;99270.64;;;4.12;85.63
71996;BME280;59862;47.732;7.346;2023-02-20T05:28:55;99260.27;;;4.09;85.88
71996;BME280;59862;47.732;7.346;2023-02-20T05:31:22;99267.23;;;4.05;86.04
71996;BME280;59862;47.732;7.346;2023-02-20T05:33:50;99271.16;;;3.99;86.55
71996;BME280;59862;47.732;7.346;2023-02-20T05:36:17;99267.83;;;4.03;86.71
71996;BME280;59862;47.732;7.346;2023-02-20T05:38:44;99263.74;;;4.10;86.75
71996;BME280;59862;47.732;7.346;2023-02-20T05:41:15;99258.62;;;4.01;86.62
71996;BME280;59862;47.732;7.346;2023-02-20T05:43:43;99258.74;;;4.00;86.54
71996;BME280;59862;47.732;7.346;2023-02-20T05:46:11;99255.83;;;3.97;86.49
71996;BME280;59862;47.732;7.346;2023-02-20T05:48:39;99256.89;;;3.95;86.65
71996;BME280;59862;47.732;7.346;2023-02-20T05:51:06;99255.75;;;3.86;87.18
71996;BME280;59862;47.732;7.346;2023-02-20T05:53:34;99249.26;;;3.90;87.31
71996;BME280;59862;47.732;7.346;2023-02-20T05:56:02;99251.03;;;3.84;87.53
71996;BME280;59862;47.732;7.346;2023-02-20T05:58:30;99242.08;;;3.79;88.18
71996;BME280;59862;47.732;7.346;2023-02-20T06:00:57;99248.03;;;3.83;88.35
71996;BME280;59862;47.732;7.346;2023-02-20T06:03:25;99244.64;;;3.81;88.28
71996;BME280;59862;47.732;7.346;2023-02-20T06:05:52;99244.78;;;3.85;88.33
71996;BME280;59862;47.732;7.346;2023-02-20T06:08:21;99246.46;;;3.86;88.15
71996;BME280;59862;47.732;7.346;2023-02-20T06:10:49;99241.94;;;3.75;87.75
71996;BME280;59862;47.732;7.346;2023-02-20T06:13:16;99246.30;;;3.76;87.40
71996;BME280;59862;47.732;7.346;2023-02-20T06:15:44;99246.71;;;3.70;87.24
71996;BME280;59862;47.732;7.346;2023-02-20T06:18:11;99243.65;;;3.64;87.35
71996;BME280;59862;47.732;7.346;2023-02-20T06:20:38;99238.11;;;3.61;87.32
71996;BME280;59862;47.732;7.346;2023-02-20T06:23:06;99244.83;;;3.60;87.30
71996;BME280;59862;47.732;7.346;2023-02-20T06:25:33;99242.41;;;3.57;87.21
71996;BME280;59862;47.732;7.346;2023-02-20T06:28:01;99248.55;;;3.57;87.13
71996;BME280;59862;47.732;7.346;2023-02-20T06:30:28;99253.97;;;3.56;87.12
71996;BME280;59862;47.732;7.346;2023-02-20T06:32:56;99246.25;;;3.53;87.18
71996;BME280;59862;47.732;7.346;2023-02-20T06:35:23;99248.38;;;3.48;87.32
71996;BME280;59862;47.732;7.346;2023-02-20T06:37:50;99246.34;;;3.51;87.43
71996;BME280;59862;47.732;7.346;2023-02-20T06:40:18;99250.97;;;3.55;87.53
71996;BME280;59862;47.732;7.346;2023-02-20T06:42:45;99251.70;;;3.57;87.52
71996;BME280;59862;47.732;7.346;2023-02-20T06:45:13;99252.50;;;3.52;87.61
71996;BME280;59862;47.732;7.346;2023-02-20T06:47:40;99252.05;;;3.58;87.60
71996;BME280;59862;47.732;7.346;2023-02-20T06:50:08;99252.44;;;3.59;87.51
71996;BME280;59862;47.732;7.346;2023-02-20T06:52:36;99251.84;;;3.61;87.58
71996;BME280;59862;47.732;7.346;2023-02-20T06:55:04;99265.27;;;3.65;87.76
71996;BME280;59862;47.732;7.346;2023-02-20T06:57:31;99262.43;;;3.73;87.87
71996;BME280;59862;47.732;7.346;2023-02-20T06:59:59;99258.00;;;3.79;88.07
71996;BME280;59862;47.732;7.346;2023-02-20T07:02:26;99265.57;;;3.91;88.35
71996;BME280;59862;47.732;7.346;2023-02-20T07:04:54;99265.50;;;3.98;88.58
71996;BME280;59862;47.732;7.346;2023-02-20T07:07:21;99268.46;;;4.12;88.65
71996;BME280;59862;47.732;7.346;2023-02-20T07:09:49;99269.97;;;4.21;88.53
71996;BME280;59862;47.732;7.346;2023-02-20T07:12:16;99265.66;;;4.26;88.42
71996;BME280;59862;47.732;7.346;2023-02-20T07:14:43;99265.66;;;4.31;88.25
71996;BME280;59862;47.732;7.346;2023-02-20T07:17:11;99271.42;;;4.43;88.07
71996;BME280;59862;47.732;7.346;2023-02-20T07:19:38;99272.20;;;4.56;87.78
71996;BME280;59862;47.732;7.346;2023-02-20T07:22:06;99269.08;;;4.68;87.40
71996;BME280;59862;47.732;7.346;2023-02-20T07:24:33;99272.73;;;4.73;86.90
71996;BME280;59862;47.732;7.346;2023-02-20T07:27:02;99271.18;;;4.81;86.51
71996;BME280;59862;47.732;7.346;2023-02-20T07:29:29;99276.79;;;4.95;86.19
71996;BME280;59862;47.732;7.346;2023-02-20T07:31:57;99274.77;;;5.04;85.95
71996;BME280;59862;47.732;7.346;2023-02-20T07:34:24;99274.66;;;5.16;85.62
71996;BME280;59862;47.732;7.346;2023-02-20T07:36:51;99278.54;;;5.29;85.22
71996;BME280;59862;47.732;7.346;2023-02-20T07:39:19;99281.23;;;5.46;84.56
71996;BME280;59862;47.732;7.346;2023-02-20T07:41:49;99271.53;;;5.61;83.93
71996;BME280;59862;47.732;7.346;2023-02-20T07:44:17;99274.94;;;5.80;83.08
71996;BME280;59862;47.732;7.346;2023-02-20T07:46:44;99274.95;;;6.02;82.50
71996;BME280;59862;47.732;7.346;2023-02-20T07:49:12;99274.77;;;6.26;81.81
71996;BME280;59862;47.732;7.346;2023-02-20T07:51:39;99272.31;;;6.34;80.38
71996;BME280;59862;47.732;7.346;2023-02-20T07:54:06;99265.69;;;6.54;80.00
71996;BME280;59862;47.732;7.346;2023-02-20T07:56:34;99271.88;;;6.81;78.65
71996;BME280;59862;47.732;7.346;2023-02-20T07:59:01;99248.70;;;7.08;77.99
71996;BME280;59862;47.732;7.346;2023-02-20T08:01:29;99268.70;;;7.43;76.25
71996;BME280;59862;47.732;7.346;2023-02-20T08:03:56;99268.89;;;7.82;74.54
71996;BME280;59862;47.732;7.346;2023-02-20T08:06:24;99273.70;;;8.22;73.34
71996;BME280;59862;47.732;7.346;2023-02-20T08:08:52;99260.44;;;9.22;69.91
71996;BME280;59862;47.732;7.346;2023-02-20T08:11:21;99260.44;;;9.22;69.91
71996;BME280;59862;47.732;7.346;2023-02-20T08:13:49;99268.45;;;9.77;67.21
71996;BME280;59862;47.732;7.346;2023-02-20T08:16:17;99268.45;;;9.77;67.21
71996;BME280;59862;47.732;7.346;2023-02-20T08:18:44;99271.14;;;9.91;66.92
71996;BME280;59862;47.732;7.346;2023-02-20T08:21:12;99267.53;;;9.96;65.20
71996;BME280;59862;47.732;7.346;2023-02-20T08:23:39;99268.64;;;10.30;65.32
71996;BME280;59862;47.732;7.346;2023-02-20T08:26:06;99268.77;;;10.29;64.42
71996;BME280;59862;47.732;7.346;2023-02-20T08:28:34;99269.69;;;9.97;64.70
71996;BME280;59862;47.732;7.346;2023-02-20T08:31:01;99264.23;;;9.88;65.66
71996;BME280;59862;47.732;7.346;2023-02-20T08:33:29;99256.73;;;9.92;65.80
71996;BME280;59862;47.732;7.346;2023-02-20T08:35:57;99265.72;;;10.01;65.96
71996;BME280;59862;47.732;7.346;2023-02-20T08:38:31;99260.23;;;10.16;65.44
71996;BME280;59862;47.732;7.346;2023-02-20T08:41:04;99265.47;;;10.31;64.67
71996;BME280;59862;47.732;7.346;2023-02-20T08:43:34;99272.42;;;10.73;64.23
71996;BME280;59862;47.732;7.346;2023-02-20T08:46:03;99262.33;;;11.79;62.29
71996;BME280;59862;47.732;7.346;2023-02-20T08:48:31;99261.67;;;12.14;59.45
71996;BME280;59862;47.732;7.346;2023-02-20T08:50:59;99262.75;;;12.38;58.71
71996;BME280;59862;47.732;7.346;2023-02-20T08:53:26;99258.81;;;12.20;58.59
71996;BME280;59862;47.732;7.346;2023-02-20T08:55:54;99254.81;;;11.82;59.92
71996;BME280;59862;47.732;7.346;2023-02-20T08:58:23;99248.42;;;11.87;60.17
71996;BME280;59862;47.732;7.346;2023-02-20T09:00:51;99246.95;;;12.43;58.64
71996;BME280;59862;47.732;7.346;2023-02-20T09:03:19;99248.11;;;11.90;58.50
71996;BME280;59862;47.732;7.346;2023-02-20T09:05:47;99242.81;;;11.00;61.18
71996;BME280;59862;47.732;7.346;2023-02-20T09:08:15;99237.78;;;11.26;61.00
71996;BME280;59862;47.732;7.346;2023-02-20T09:10:42;99237.48;;;11.59;59.75
71996;BME280;59862;47.732;7.346;2023-02-20T09:13:10;99234.64;;;11.82;59.57
71996;BME280;59862;47.732;7.346;2023-02-20T09:15:38;99235.72;;;12.01;59.71
71996;BME280;59862;47.732;7.346;2023-02-20T09:18:07;99229.68;;;12.77;57.24
71996;BME280;59862;47.732;7.346;2023-02-20T09:20:37;99230.75;;;12.23;57.66
71996;BME280;59862;47.732;7.346;2023-02-20T09:23:06;99226.23;;;12.39;57.11
71996;BME280;59862;47.732;7.346;2023-02-20T09:25:34;99224.07;;;12.39;57.14
71996;BME280;59862;47.732;7.346;2023-02-20T09:28:01;99221.02;;;11.84;58.51
71996;BME280;59862;47.732;7.346;2023-02-20T09:30:29;99218.36;;;11.92;58.60
71996;BME280;59862;47.732;7.346;2023-02-20T09:32:56;99226.11;;;11.95;58.92
71996;BME280;59862;47.732;7.346;2023-02-20T09:35:26;99223.75;;;11.96;58.39
71996;BME280;59862;47.732;7.346;2023-02-20T09:37:54;99220.25;;;11.40;60.13
71996;BME280;59862;47.732;7.346;2023-02-20T09:40:24;99225.73;;;11.56;60.34
71996;BME280;59862;47.732;7.346;2023-02-20T09:45:24;99218.99;;;12.28;57.56
71996;BME280;59862;47.732;7.346;2023-02-20T09:48:02;99221.64;;;12.24;58.47
71996;BME280;59862;47.732;7.346;2023-02-20T09:50:36;99218.69;;;12.39;57.85
71996;BME280;59862;47.732;7.346;2023-02-20T09:53:22;99214.51;;;12.80;56.88
71996;BME280;59862;47.732;7.346;2023-02-20T09:55:48;99222.62;;;13.13;55.91
71996;BME280;59862;47.732;7.346;2023-02-20T09:58:20;99222.41;;;13.38;55.43
71996;BME280;59862;47.732;7.346;2023-02-20T10:00:47;99225.54;;;13.74;53.57
71996;BME280;59862;47.732;7.346;2023-02-20T10:03:20;99226.95;;;14.05;53.03
71996;BME280;59862;47.732;7.346;2023-02-20T10:05:47;99225.09;;;14.01;52.61
71996;BME280;59862;47.732;7.346;2023-02-20T10:08:20;99217.53;;;13.93;53.21
71996;BME280;59862;47.732;7.346;2023-02-20T10:10:50;99211.28;;;14.00;53.35
71996;BME280;59862;47.732;7.346;2023-02-20T10:13:41;99206.16;;;13.75;53.84
71996;BME280;59862;47.732;7.346;2023-02-20T10:16:35;99206.91;;;13.95;53.75
71996;BME280;59862;47.732;7.346;2023-02-20T10:26:46;99199.23;;;14.72;49.88
71996;BME280;59862;47.732;7.346;2023-02-20T10:29:30;99202.25;;;15.14;49.77
71996;BME280;59862;47.732;7.346;2023-02-20T10:31:59;99198.34;;;15.54;47.60
71996;BME280;59862;47.732;7.346;2023-02-20T10:34:29;99196.92;;;16.02;46.57
71996;BME280;59862;47.732;7.346;2023-02-20T10:37:18;99187.69;;;15.34;47.49
71996;BME280;59862;47.732;7.346;2023-02-20T10:39:44;99182.95;;;15.69;46.28
71996;BME280;59862;47.732;7.346;2023-02-20T10:42:13;99179.02;;;16.12;46.07
71996;BME280;59862;47.732;7.346;2023-02-20T10:45:04;99174.81;;;16.34;45.46
71996;BME280;59862;47.732;7.346;2023-02-20T10:47:48;99164.02;;;16.77;43.92
71996;BME280;59862;47.732;7.346;2023-02-20T10:50:21;99153.91;;;17.51;42.79
71996;BME280;59862;47.732;7.346;2023-02-20T10:55:39;99145.44;;;19.08;39.32
71996;BME280;59862;47.732;7.346;2023-02-20T10:58:17;99151.50;;;19.49;39.04
71996;BME280;59862;47.732;7.346;2023-02-20T11:00:48;99161.95;;;19.13;38.45
71996;BME280;59862;47.732;7.346;2023-02-20T11:03:26;99171.09;;;19.35;38.80
71996;BME280;59862;47.732;7.346;2023-02-20T11:05:56;99166.48;;;18.47;39.35
71996;BME280;59862;47.732;7.346;2023-02-20T11:08:23;99159.78;;;19.19;38.49
71996;BME280;59862;47.732;7.346;2023-02-20T11:10:54;99147.20;;;19.05;37.98
71996;BME280;59862;47.732;7.346;2023-02-20T11:13:23;99134.16;;;17.87;39.92
71996;BME280;59862;47.732;7.346;2023-02-20T11:15:54;99109.98;;;18.36;39.72
71996;BME280;59862;47.732;7.346;2023-02-20T11:18:34;99101.17;;;19.03;39.33
71996;BME280;59862;47.732;7.346;2023-02-20T11:21:01;99119.06;;;19.76;38.78
71996;BME280;59862;47.732;7.346;2023-02-20T11:23:42;99126.55;;;20.16;37.56
71996;BME280;59862;47.732;7.346;2023-02-20T11:26:25;99130.03;;;19.43;38.60
71996;BME280;59862;47.732;7.346;2023-02-20T11:31:35;99114.89;;;19.67;38.37
71996;BME280;59862;47.732;7.346;2023-02-20T11:34:04;99113.73;;;20.01;38.16
71996;BME280;59862;47.732;7.346;2023-02-20T11:36:51;99111.45;;;20.42;36.73
71996;BME280;59862;47.732;7.346;2023-02-20T11:39:26;99105.59;;;20.10;37.31
71996;BME280;59862;47.732;7.346;2023-02-20T11:42:17;99098.62;;;20.89;36.40
71996;BME280;59862;47.732;7.346;2023-02-20T11:44:45;99096.14;;;20.72;36.67
71996;BME280;59862;47.732;7.346;2023-02-20T11:47:18;99104.52;;;19.38;38.57
71996;BME280;59862;47.732;7.346;2023-02-20T11:49:47;99085.63;;;18.32;40.43
71996;BME280;59862;47.732;7.346;2023-02-20T11:52:22;99078.91;;;17.67;42.43
71996;BME280;59862;47.732;7.346;2023-02-20T11:54:47;99072.01;;;16.68;44.01
71996;BME280;59862;47.732;7.346;2023-02-20T11:57:19;99064.54;;;16.28;44.39
71996;BME280;59862;47.732;7.346;2023-02-20T11:59:49;99066.48;;;15.52;45.99
71996;BME280;59862;47.732;7.346;2023-02-20T12:02:23;99055.05;;;15.02;47.64
71996;BME280;59862;47.732;7.346;2023-02-20T12:07:54;99054.04;;;14.70;47.86
71996;BME280;59862;47.732;7.346;2023-02-20T12:12:55;99046.80;;;14.85;48.31
71996;BME280;59862;47.732;7.346;2023-02-20T12:15:26;99049.55;;;15.40;46.00
71996;BME280;59862;47.732;7.346;2023-02-20T12:18:20;99042.58;;;14.68;47.77
71996;BME280;59862;47.732;7.346;2023-02-20T12:20:53;99036.62;;;14.54;47.70
71996;BME280;59862;47.732;7.346;2023-02-20T12:23:38;99028.95;;;14.43;47.08
71996;BME280;59862;47.732;7.346;2023-02-20T12:34:50;99012.02;;;14.82;47.50
71996;BME280;59862;47.732;7.346;2023-02-20T12:37:27;98996.97;;;15.13;46.65
71996;BME280;59862;47.732;7.346;2023-02-20T12:51:10;98995.44;;;18.45;38.26
71996;BME280;59862;47.732;7.346;2023-02-20T12:53:47;98990.48;;;18.05;39.02
71996;BME280;59862;47.732;7.346;2023-02-20T12:59:08;98984.80;;;17.87;40.17
71996;BME280;59862;47.732;7.346;2023-02-20T13:01:35;98986.84;;;18.22;39.85
71996;BME280;59862;47.732;7.346;2023-02-20T13:04:51;98989.66;;;19.60;36.25
71996;BME280;59862;47.732;7.346;2023-02-20T13:06:46;98983.76;;;21.43;32.70
71996;BME280;59862;47.732;7.346;2023-02-20T13:09:37;98986.44;;;22.71;31.01
71996;BME280;59862;47.732;7.346;2023-02-20T13:12:12;98987.79;;;23.40;30.06
71996;BME280;59862;47.732;7.346;2023-02-20T13:22:39;98964.86;;;25.74;26.26
71996;BME280;59862;47.732;7.346;2023-02-20T13:25:30;98966.17;;;25.47;26.25
71996;BME280;59862;47.732;7.346;2023-02-20T13:28:17;98967.28;;;27.63;24.69
71996;BME280;59862;47.732;7.346;2023-02-20T13:30:30;98958.99;;;29.82;21.89
71996;BME280;59862;47.732;7.346;2023-02-20T13:33:21;98968.17;;;31.51;20.34
71996;BME280;59862;47.732;7.346;2023-02-20T13:35:52;98960.25;;;33.10;18.31
71996;BME280;59862;47.732;7.346;2023-02-20T13:38:22;98955.33;;;35.26;16.73
71996;BME280;59862;47.732;7.346;2023-02-20T13:43:27;98944.74;;;34.73;15.69
71996;BME280;59862;47.732;7.346;2023-02-20T13:48:45;98936.25;;;32.98;16.84
71996;BME280;59862;47.732;7.346;2023-02-20T13:56:41;98926.95;;;31.82;17.40
71996;BME280;59862;47.732;7.346;2023-02-20T13:58:59;98916.39;;;32.74;17.18
71996;BME280;59862;47.732;7.346;2023-02-20T14:01:27;98910.77;;;32.26;17.58
71996;BME280;59862;47.732;7.346;2023-02-20T14:04:02;98905.09;;;33.69;16.59
71996;BME280;59862;47.732;7.346;2023-02-20T14:06:30;98902.94;;;34.92;15.84
71996;BME280;59862;47.732;7.346;2023-02-20T14:09:07;98904.97;;;35.51;14.74
71996;BME280;59862;47.732;7.346;2023-02-20T14:11:37;98899.23;;;35.17;15.04
71996;BME280;59862;47.732;7.346;2023-02-20T14:14:21;98896.94;;;35.38;14.80
71996;BME280;59862;47.732;7.346;2023-02-20T14:16:41;98888.03;;;33.32;16.72
71996;BME280;59862;47.732;7.346;2023-02-20T14:19:26;98888.05;;;34.86;16.03
71996;BME280;59862;47.732;7.346;2023-02-20T14:21:55;98888.25;;;34.78;15.47
71996;BME280;59862;47.732;7.346;2023-02-20T14:24:25;98871.07;;;32.74;17.25
71996;BME280;59862;47.732;7.346;2023-02-20T14:26:54;98875.21;;;34.96;15.78
71996;BME280;59862;47.732;7.346;2023-02-20T14:29:25;98874.69;;;36.09;15.40
71996;BME280;59862;47.732;7.346;2023-02-20T14:31:55;98876.12;;;36.75;14.52
71996;BME280;59862;47.732;7.346;2023-02-20T14:37:46;98864.14;;;33.31;16.96
71996;BME280;59862;47.732;7.346;2023-02-20T14:40:23;98861.40;;;34.27;16.14
71996;BME280;59862;47.732;7.346;2023-02-20T14:42:52;98853.80;;;33.83;16.83
71996;BME280;59862;47.732;7.346;2023-02-20T14:45:24;98849.05;;;34.64;16.08